createdAt,value
2019-03-12T00:00:36.561Z,6.32
2019-03-12T00:01:36.689Z,6.28
2019-03-12T00:02:36.811Z,6.30
2019-03-12T00:03:36.939Z,6.37
2019-03-12T00:04:37.058Z,6.42
2019-03-12T00:05:37.202Z,6.43
2019-03-12T00:06:37.315Z,6.61
2019-03-12T00:07:37.457Z,6.49
2019-03-12T00:08:37.595Z,6.50
2019-03-12T00:09:37.706Z,6.53
2019-03-12T00:10:37.834Z,6.57
2019-03-12T00:11:37.956Z,6.68
2019-03-12T00:12:38.089Z,6.61
2019-03-12T00:13:38.209Z,6.63
2019-03-12T00:14:38.329Z,6.67
2019-03-12T00:15:38.453Z,6.49
2019-03-12T00:16:38.573Z,6.50
2019-03-12T00:17:38.700Z,6.65
2019-03-12T00:18:38.825Z,6.57
2019-03-12T00:19:38.962Z,6.67
2019-03-12T00:20:39.079Z,6.50
2019-03-12T00:21:39.207Z,6.45
2019-03-12T00:22:39.341Z,6.40
2019-03-12T00:23:39.468Z,6.46
2019-03-12T00:24:39.590Z,6.45
2019-03-12T00:25:39.721Z,6.47
2019-03-12T00:26:39.850Z,6.37
2019-03-12T00:27:39.973Z,6.12
2019-03-12T00:28:40.097Z,6.21
2019-03-12T00:29:40.230Z,6.27
2019-03-12T00:30:40.352Z,6.25
2019-03-12T00:31:40.476Z,6.16
2019-03-12T00:32:40.601Z,6.32
2019-03-12T00:33:40.728Z,6.35
2019-03-12T00:34:40.854Z,6.32
2019-03-12T00:35:40.977Z,6.30
2019-03-12T00:36:41.104Z,6.50
2019-03-12T00:37:41.232Z,6.32
2019-03-12T00:38:41.354Z,6.38
2019-03-12T00:39:41.484Z,6.21
2019-03-12T00:40:41.610Z,6.16
2019-03-12T00:41:41.743Z,6.19
2019-03-12T00:42:41.873Z,6.25
2019-03-12T00:43:41.992Z,6.12
2019-03-12T00:44:42.114Z,6.08
2019-03-12T00:45:42.247Z,6.06
2019-03-12T00:46:42.373Z,6.03
2019-03-12T00:47:42.497Z,6.09
2019-03-12T00:48:42.624Z,5.91
2019-03-12T00:49:42.753Z,5.76
2019-03-12T00:50:42.875Z,5.72
2019-03-12T00:51:42.994Z,5.62
2019-03-12T00:52:43.148Z,5.66
2019-03-12T00:53:43.270Z,5.51
2019-03-12T00:54:43.393Z,5.55
2019-03-12T00:55:43.516Z,5.44
2019-03-12T00:56:43.667Z,5.50
2019-03-12T00:57:43.785Z,5.44
2019-03-12T00:58:43.906Z,5.52
2019-03-12T00:59:44.031Z,5.54
2019-03-12T01:00:44.169Z,5.41
2019-03-12T01:01:44.293Z,5.48
2019-03-12T01:02:44.421Z,5.50
2019-03-12T01:03:44.540Z,5.51
2019-03-12T01:04:44.663Z,5.55
2019-03-12T01:05:44.789Z,5.41
2019-03-12T01:06:44.918Z,5.57
2019-03-12T01:07:45.097Z,5.54
2019-03-12T01:08:45.171Z,5.50
2019-03-12T01:09:45.318Z,5.44
2019-03-12T01:10:45.444Z,5.39
2019-03-12T01:11:45.560Z,5.47
2019-03-12T01:12:45.689Z,5.47
2019-03-12T01:13:45.836Z,5.40
2019-03-12T01:14:45.953Z,5.40
2019-03-12T01:15:46.077Z,5.55
2019-03-12T01:16:46.198Z,5.61
2019-03-12T01:17:46.334Z,5.50
2019-03-12T01:18:46.451Z,5.50
2019-03-12T01:19:46.585Z,5.57
2019-03-12T01:20:46.826Z,5.58
2019-03-12T01:21:46.865Z,5.55
2019-03-12T01:22:46.979Z,5.61
2019-03-12T01:23:47.105Z,5.61
2019-03-12T01:24:47.231Z,5.69
2019-03-12T01:25:47.358Z,5.62
2019-03-12T01:26:47.481Z,5.65
2019-03-12T01:27:47.608Z,5.67
2019-03-12T01:28:47.739Z,5.82
2019-03-12T01:29:47.861Z,5.93
2019-03-12T01:30:47.985Z,6.00
2019-03-12T01:31:48.175Z,5.94
2019-03-12T01:32:48.291Z,5.94
2019-03-12T01:33:48.421Z,5.95
2019-03-12T01:34:48.543Z,5.80
2019-03-12T01:35:48.711Z,5.75
2019-03-12T01:36:48.808Z,5.75
2019-03-12T01:37:48.930Z,5.70
2019-03-12T01:38:49.060Z,5.65
2019-03-12T01:39:49.188Z,5.57
2019-03-12T01:40:49.313Z,5.72
2019-03-12T01:41:49.438Z,5.66
2019-03-12T01:42:52.377Z,5.59
2019-03-12T01:43:49.700Z,5.50
2019-03-12T01:44:49.820Z,5.54
2019-03-12T01:45:49.960Z,5.51
2019-03-12T01:46:50.085Z,5.44
2019-03-12T01:47:50.229Z,5.43
2019-03-12T01:48:50.342Z,5.50
2019-03-12T01:49:50.468Z,5.41
2019-03-12T01:50:50.605Z,5.37
2019-03-12T01:51:50.737Z,5.36
2019-03-12T01:52:50.859Z,5.39
2019-03-12T01:53:50.983Z,5.39
2019-03-12T01:54:51.112Z,5.37
2019-03-12T01:55:51.283Z,5.40
2019-03-12T01:56:51.379Z,5.43
2019-03-12T01:57:51.572Z,5.40
2019-03-12T01:58:51.638Z,5.36
2019-03-12T01:59:51.767Z,5.37
2019-03-12T02:00:51.885Z,5.27
2019-03-12T02:01:52.013Z,5.32
2019-03-12T02:02:52.143Z,5.40
2019-03-12T02:03:52.281Z,5.47
2019-03-12T02:04:52.415Z,5.43
2019-03-12T02:05:52.535Z,5.54
2019-03-12T02:06:52.682Z,5.52
2019-03-12T02:07:52.798Z,5.48
2019-03-12T02:08:52.924Z,5.36
2019-03-12T02:09:53.053Z,5.25
2019-03-12T02:10:53.180Z,5.15
2019-03-12T02:11:53.303Z,5.24
2019-03-12T02:12:53.424Z,5.14
2019-03-12T02:13:53.551Z,5.16
2019-03-12T02:14:53.711Z,5.07
2019-03-12T02:15:53.815Z,5.06
2019-03-12T02:16:53.936Z,5.01
2019-03-12T02:17:54.066Z,5.00
2019-03-12T02:18:54.192Z,5.03
2019-03-12T02:19:54.324Z,5.03
2019-03-12T02:20:54.458Z,5.14
2019-03-12T02:21:54.585Z,5.09
2019-03-12T02:22:54.700Z,5.11
2019-03-12T02:23:54.827Z,5.04
2019-03-12T02:24:54.944Z,5.09
2019-03-12T02:25:55.092Z,5.09
2019-03-12T02:26:55.195Z,5.14
2019-03-12T02:27:55.324Z,5.16
2019-03-12T02:28:55.459Z,5.29
2019-03-12T02:29:55.601Z,5.18
2019-03-12T02:30:55.730Z,5.18
2019-03-12T02:31:55.858Z,5.34
2019-03-12T02:32:55.972Z,5.37
2019-03-12T02:33:56.107Z,5.41
2019-03-12T02:34:56.221Z,5.33
2019-03-12T02:35:56.345Z,5.41
2019-03-12T02:36:56.475Z,5.44
2019-03-12T02:37:56.613Z,5.52
2019-03-12T02:38:56.719Z,5.65
2019-03-12T02:39:56.840Z,5.52
2019-03-12T02:40:56.964Z,5.59
2019-03-12T02:41:57.111Z,5.61
2019-03-12T02:42:57.234Z,5.48
2019-03-12T02:43:57.363Z,5.48
2019-03-12T02:44:57.498Z,5.33
2019-03-12T02:45:57.611Z,5.48
2019-03-12T02:46:57.769Z,5.61
2019-03-12T02:47:57.870Z,5.54
2019-03-12T02:48:57.987Z,5.51
2019-03-12T02:49:58.135Z,5.62
2019-03-12T02:50:58.255Z,5.48
2019-03-12T02:51:58.376Z,5.36
2019-03-12T02:52:58.542Z,5.32
2019-03-12T02:53:58.625Z,5.24
2019-03-12T02:54:58.755Z,5.15
2019-03-12T02:56:01.810Z,5.14
2019-03-12T02:56:59.014Z,5.01
2019-03-12T02:57:59.134Z,5.11
2019-03-12T02:58:59.266Z,4.93
2019-03-12T02:59:59.381Z,4.93
2019-03-12T03:00:59.691Z,4.86
2019-03-12T03:01:59.639Z,4.89
2019-03-12T03:02:59.761Z,4.91
2019-03-12T03:03:59.896Z,4.85
2019-03-12T03:05:00.015Z,4.89
2019-03-12T03:06:00.139Z,4.83
2019-03-12T03:07:00.279Z,4.74
2019-03-12T03:08:00.403Z,4.79
2019-03-12T03:09:00.549Z,4.83
2019-03-12T03:10:00.746Z,4.77
2019-03-12T03:11:00.790Z,4.86
2019-03-12T03:12:00.911Z,4.79
2019-03-12T03:13:01.046Z,4.85
2019-03-12T03:14:01.163Z,4.77
2019-03-12T03:15:01.360Z,4.79
2019-03-12T03:16:01.427Z,4.88
2019-03-12T03:17:01.541Z,4.93
2019-03-12T03:18:01.692Z,5.00
2019-03-12T03:19:01.807Z,5.06
2019-03-12T03:20:01.934Z,5.07
2019-03-12T03:21:02.058Z,5.03
2019-03-12T03:22:02.216Z,5.06
2019-03-12T03:23:02.329Z,5.07
2019-03-12T03:24:02.457Z,5.09
2019-03-12T03:25:02.581Z,5.03
2019-03-12T03:26:02.718Z,5.11
2019-03-12T03:27:02.831Z,5.07
2019-03-12T03:28:02.957Z,5.09
2019-03-12T03:29:03.088Z,5.14
2019-03-12T03:30:03.264Z,5.11
2019-03-12T03:31:03.680Z,5.07
2019-03-12T03:32:03.551Z,4.96
2019-03-12T03:33:03.626Z,5.06
2019-03-12T03:34:03.762Z,5.06
2019-03-12T03:35:03.891Z,4.97
2019-03-12T03:36:04.003Z,4.88
2019-03-12T03:37:04.130Z,4.89
2019-03-12T03:38:04.277Z,4.93
2019-03-12T03:39:04.492Z,4.97
2019-03-12T03:40:04.502Z,4.94
2019-03-12T03:41:04.635Z,4.85
2019-03-12T03:42:04.835Z,4.85
2019-03-12T03:43:04.896Z,4.94
2019-03-12T03:44:05.028Z,4.86
2019-03-12T03:45:05.144Z,4.89
2019-03-12T03:46:05.283Z,4.91
2019-03-12T03:47:05.403Z,4.96
2019-03-12T03:48:05.537Z,4.86
2019-03-12T03:49:05.638Z,4.94
2019-03-12T03:50:05.805Z,4.79
2019-03-12T03:51:05.924Z,4.77
2019-03-12T03:52:06.047Z,4.75
2019-03-12T03:53:06.169Z,4.83
2019-03-12T03:54:06.307Z,4.85
2019-03-12T03:55:06.436Z,4.85
2019-03-12T03:56:06.560Z,4.77
2019-03-12T03:57:06.697Z,4.82
2019-03-12T03:58:06.820Z,4.74
2019-03-12T03:59:06.946Z,4.69
2019-03-12T04:00:07.092Z,4.69
2019-03-12T04:01:07.224Z,4.71
2019-03-12T04:02:07.332Z,4.72
2019-03-12T04:03:07.473Z,4.69
2019-03-12T04:04:07.609Z,4.69
2019-03-12T04:05:07.726Z,4.71
2019-03-12T04:06:07.872Z,4.69
2019-03-12T04:07:07.991Z,4.57
2019-03-12T04:08:08.114Z,4.63
2019-03-12T04:09:08.256Z,4.61
2019-03-12T04:10:08.379Z,4.60
2019-03-12T04:11:08.502Z,4.75
2019-03-12T04:12:08.629Z,4.64
2019-03-12T04:13:08.776Z,4.57
2019-03-12T04:14:08.892Z,4.64
2019-03-12T04:15:09.039Z,4.56
2019-03-12T04:16:09.150Z,4.53
2019-03-12T04:17:09.274Z,4.49
2019-03-12T04:18:09.417Z,4.45
2019-03-12T04:19:09.541Z,4.51
2019-03-12T04:20:09.662Z,4.53
2019-03-12T04:21:09.848Z,4.49
2019-03-12T04:22:09.935Z,4.45
2019-03-12T04:23:10.054Z,4.51
2019-03-12T04:24:10.174Z,4.41
2019-03-12T04:25:10.324Z,4.39
2019-03-12T04:26:10.444Z,4.38
2019-03-12T04:27:10.566Z,4.30
2019-03-12T04:28:10.704Z,4.30
2019-03-12T04:29:10.829Z,4.30
2019-03-12T04:30:10.953Z,4.28
2019-03-12T04:31:11.075Z,4.31
2019-03-12T04:32:11.197Z,4.39
2019-03-12T04:33:11.319Z,4.31
2019-03-12T04:34:11.460Z,4.43
2019-03-12T04:35:11.564Z,4.36
2019-03-12T04:36:11.689Z,4.34
2019-03-12T04:37:11.817Z,4.23
2019-03-12T04:38:12.045Z,4.30
2019-03-12T04:39:12.066Z,4.30
2019-03-12T04:40:12.185Z,4.36
2019-03-12T04:41:12.307Z,4.24
2019-03-12T04:42:12.443Z,4.30
2019-03-12T04:43:12.569Z,4.23
2019-03-12T04:44:12.690Z,4.27
2019-03-12T04:45:12.813Z,4.27
2019-03-12T04:46:12.942Z,4.26
2019-03-12T04:47:13.077Z,4.21
2019-03-12T04:48:13.198Z,4.13
2019-03-12T04:49:13.317Z,4.16
2019-03-12T04:50:13.452Z,4.16
2019-03-12T04:51:13.563Z,4.26
2019-03-12T04:52:13.684Z,4.18
2019-03-12T04:53:13.883Z,4.10
2019-03-12T04:54:13.941Z,4.13
2019-03-12T04:55:14.067Z,4.06
2019-03-12T04:56:14.186Z,4.06
2019-03-12T04:57:14.299Z,4.12
2019-03-12T04:58:14.437Z,4.05
2019-03-12T04:59:14.563Z,4.18
2019-03-12T05:00:14.684Z,4.06
2019-03-12T05:01:14.808Z,4.02
2019-03-12T05:02:14.930Z,3.96
2019-03-12T05:03:15.052Z,3.99
2019-03-12T05:04:15.177Z,3.99
2019-03-12T05:05:15.311Z,4.12
2019-03-12T05:06:15.429Z,4.02
2019-03-12T05:07:15.554Z,4.02
2019-03-12T05:08:15.674Z,4.10
2019-03-12T05:09:15.801Z,4.09
2019-03-12T05:10:15.927Z,4.02
2019-03-12T05:11:16.049Z,4.02
2019-03-12T05:12:16.174Z,4.06
2019-03-12T05:13:16.298Z,4.09
2019-03-12T05:14:16.419Z,3.99
2019-03-12T05:15:16.553Z,4.00
2019-03-12T05:16:16.672Z,4.09
2019-03-12T05:17:16.798Z,4.03
2019-03-12T05:18:16.922Z,4.09
2019-03-12T05:19:17.054Z,3.99
2019-03-12T05:20:17.168Z,4.12
2019-03-12T05:21:17.299Z,4.00
2019-03-12T05:22:17.411Z,4.12
2019-03-12T05:23:17.536Z,4.09
2019-03-12T05:24:17.663Z,4.02
2019-03-12T05:25:17.783Z,4.20
2019-03-12T05:26:17.909Z,4.10
2019-03-12T05:27:18.046Z,4.09
2019-03-12T05:28:18.157Z,4.21
2019-03-12T05:29:18.279Z,4.10
2019-03-12T05:30:18.406Z,4.09
2019-03-12T05:31:18.562Z,4.10
2019-03-12T05:32:18.645Z,4.17
2019-03-12T05:33:18.773Z,4.20
2019-03-12T05:34:18.894Z,4.09
2019-03-12T05:35:19.020Z,4.10
2019-03-12T05:36:19.166Z,4.00
2019-03-12T05:37:19.262Z,4.05
2019-03-12T05:38:19.396Z,3.99
2019-03-12T05:39:19.510Z,4.03
2019-03-12T05:40:19.640Z,4.13
2019-03-12T05:41:19.765Z,4.10
2019-03-12T05:42:19.897Z,4.12
2019-03-12T05:43:20.016Z,4.20
2019-03-12T05:44:20.139Z,4.13
2019-03-12T05:45:20.263Z,4.03
2019-03-12T05:46:20.385Z,4.05
2019-03-12T05:47:20.508Z,4.02
2019-03-12T05:48:20.630Z,4.02
2019-03-12T05:49:20.762Z,4.09
2019-03-12T05:50:20.879Z,4.02
2019-03-12T05:51:21.006Z,4.13
2019-03-12T05:52:21.131Z,4.13
2019-03-12T05:53:21.256Z,3.96
2019-03-12T05:54:21.375Z,4.08
2019-03-12T05:55:21.514Z,4.06
2019-03-12T05:56:21.636Z,4.09
2019-03-12T05:57:21.757Z,4.08
2019-03-12T05:58:21.887Z,4.20
2019-03-12T05:59:22.019Z,4.18
2019-03-12T06:00:22.127Z,4.05
2019-03-12T06:01:22.250Z,4.08
2019-03-12T06:02:22.383Z,4.09
2019-03-12T06:03:22.500Z,4.08
2019-03-12T06:04:22.629Z,4.12
2019-03-12T06:05:22.751Z,4.27
2019-03-12T06:06:22.871Z,4.21
2019-03-12T06:07:23.018Z,4.42
2019-03-12T06:08:23.137Z,4.28
2019-03-12T06:09:30.206Z,4.31
2019-03-12T06:10:23.390Z,4.28
2019-03-12T06:11:23.515Z,4.34
2019-03-12T06:12:23.654Z,4.18
2019-03-12T06:13:23.778Z,4.21
2019-03-12T06:14:23.882Z,4.24
2019-03-12T06:15:24.003Z,4.12
2019-03-12T06:16:24.131Z,4.10
2019-03-12T06:17:24.246Z,4.09
2019-03-12T06:18:24.378Z,4.20
2019-03-12T06:19:24.511Z,4.21
2019-03-12T06:20:24.631Z,4.13
2019-03-12T06:21:24.754Z,4.30
2019-03-12T06:22:24.879Z,4.21
2019-03-12T06:23:24.999Z,4.35
2019-03-12T06:24:25.127Z,4.18
2019-03-12T06:25:25.261Z,4.31
2019-03-12T06:26:25.379Z,4.23
2019-03-12T06:27:25.494Z,4.23
2019-03-12T06:28:25.622Z,4.20
2019-03-12T06:29:25.747Z,4.18
2019-03-12T06:30:26.119Z,4.30
2019-03-12T06:31:26.028Z,4.21
2019-03-12T06:32:26.152Z,4.23
2019-03-12T06:33:26.273Z,4.31
2019-03-12T06:34:26.403Z,4.20
2019-03-12T06:35:26.521Z,4.24
2019-03-12T06:36:26.646Z,4.28
2019-03-12T06:37:26.797Z,4.21
2019-03-12T06:38:26.920Z,4.21
2019-03-12T06:39:27.042Z,4.20
2019-03-12T06:40:27.164Z,4.20
2019-03-12T06:41:27.307Z,4.13
2019-03-12T06:42:27.427Z,4.24
2019-03-12T06:43:27.554Z,4.21
2019-03-12T06:44:27.678Z,4.31
2019-03-12T06:45:27.809Z,4.36
2019-03-12T06:46:27.931Z,4.39
2019-03-12T06:47:28.052Z,4.28
2019-03-12T06:48:28.175Z,4.34
2019-03-12T06:49:28.299Z,4.26
2019-03-12T06:50:28.439Z,4.26
2019-03-12T06:51:28.565Z,4.27
2019-03-12T06:52:28.693Z,4.20
2019-03-12T06:53:28.809Z,4.18
2019-03-12T06:54:28.935Z,4.20
2019-03-12T06:55:29.062Z,4.12
2019-03-12T06:56:29.191Z,4.17
2019-03-12T06:57:29.308Z,4.24
2019-03-12T06:58:29.463Z,4.27
2019-03-12T06:59:29.566Z,4.27
2019-03-12T07:00:29.690Z,4.21
2019-03-12T07:01:29.862Z,4.24
2019-03-12T07:02:29.975Z,4.24
2019-03-12T07:03:30.102Z,4.30
2019-03-12T07:04:30.221Z,4.30
2019-03-12T07:05:30.380Z,4.34
2019-03-12T07:06:30.500Z,4.30
2019-03-12T07:07:30.629Z,4.26
2019-03-12T07:08:30.764Z,4.38
2019-03-12T07:09:30.912Z,4.35
2019-03-12T07:10:31.024Z,4.35
2019-03-12T07:11:31.141Z,4.30
2019-03-12T07:12:31.304Z,4.36
2019-03-12T07:13:31.416Z,4.39
2019-03-12T07:14:31.538Z,4.36
2019-03-12T07:15:31.661Z,4.48
2019-03-12T07:16:31.814Z,4.63
2019-03-12T07:17:31.940Z,4.51
2019-03-12T07:18:32.057Z,4.61
2019-03-12T07:19:32.180Z,4.57
2019-03-12T07:20:32.322Z,4.71
2019-03-12T07:21:32.439Z,4.74
2019-03-12T07:22:32.567Z,4.83
2019-03-12T07:23:32.695Z,4.75
2019-03-12T07:24:32.832Z,4.85
2019-03-12T07:25:32.952Z,4.75
2019-03-12T07:26:33.089Z,4.74
2019-03-12T07:27:33.210Z,4.72
2019-03-12T07:28:33.346Z,4.78
2019-03-12T07:29:33.460Z,4.77
2019-03-12T07:30:33.585Z,4.86
2019-03-12T07:31:33.719Z,4.83
2019-03-12T07:32:33.842Z,4.79
2019-03-12T07:33:33.971Z,4.83
2019-03-12T07:34:36.840Z,4.89
2019-03-12T07:35:34.241Z,4.78
2019-03-12T07:36:34.375Z,4.66
2019-03-12T07:37:34.491Z,4.77
2019-03-12T07:38:34.609Z,4.77
2019-03-12T07:39:34.740Z,4.69
2019-03-12T07:40:34.865Z,4.83
2019-03-12T07:41:35.004Z,4.79
2019-03-12T07:42:35.120Z,4.77
2019-03-12T07:43:35.271Z,4.78
2019-03-12T07:44:35.394Z,4.86
2019-03-12T07:45:35.517Z,4.89
2019-03-12T07:46:35.669Z,4.77
2019-03-12T07:47:36.275Z,4.88
2019-03-12T07:48:35.912Z,4.78
2019-03-12T07:49:36.048Z,4.78
2019-03-12T07:50:36.164Z,4.86
2019-03-12T07:51:36.284Z,4.91
2019-03-12T07:52:36.410Z,4.85
2019-03-12T07:53:36.542Z,4.85
2019-03-12T07:54:36.674Z,4.86
2019-03-12T07:55:36.797Z,4.93
2019-03-12T07:56:36.923Z,5.07
2019-03-12T07:57:37.041Z,5.09
2019-03-12T07:58:37.177Z,5.12
2019-03-12T07:59:37.361Z,5.06
2019-03-12T08:00:37.426Z,5.11
2019-03-12T08:01:37.548Z,5.21
2019-03-12T08:02:37.681Z,5.18
2019-03-12T08:03:37.811Z,5.24
2019-03-12T08:04:37.924Z,5.36
2019-03-12T08:05:38.044Z,5.37
2019-03-12T08:06:38.200Z,5.34
2019-03-12T08:07:38.316Z,5.39
2019-03-12T08:08:38.433Z,5.34
2019-03-12T08:09:38.559Z,5.36
2019-03-12T08:10:38.684Z,5.41
2019-03-12T08:11:38.822Z,5.52
2019-03-12T08:12:38.961Z,5.44
2019-03-12T08:13:39.081Z,5.48
2019-03-12T08:14:39.205Z,5.44
2019-03-12T08:15:39.334Z,5.47
2019-03-12T08:16:39.488Z,5.57
2019-03-12T08:17:39.601Z,5.66
2019-03-12T08:18:39.721Z,5.51
2019-03-12T08:19:39.847Z,5.67
2019-03-12T08:20:39.993Z,5.69
2019-03-12T08:21:40.114Z,5.79
2019-03-12T08:22:40.246Z,5.87
2019-03-12T08:23:40.370Z,5.97
2019-03-12T08:24:40.594Z,6.05
2019-03-12T08:25:43.788Z,6.06
2019-03-12T08:26:40.774Z,5.95
2019-03-12T08:27:40.886Z,5.98
2019-03-12T08:28:41.034Z,6.05
2019-03-12T08:29:41.150Z,6.05
2019-03-12T08:30:41.268Z,6.00
2019-03-12T08:31:41.398Z,6.09
2019-03-12T08:32:41.544Z,6.16
2019-03-12T08:33:50.606Z,6.19
2019-03-12T08:34:41.893Z,6.25
2019-03-12T08:35:41.975Z,6.27
2019-03-12T08:36:42.194Z,6.27
2019-03-12T08:37:42.210Z,6.32
2019-03-12T08:38:42.340Z,6.28
2019-03-12T08:39:42.489Z,6.27
2019-03-12T08:40:52.055Z,6.28
2019-03-12T08:41:42.776Z,6.27
2019-03-12T08:42:53.966Z,6.34
2019-03-12T08:43:43.041Z,6.38
2019-03-12T08:44:43.166Z,6.37
2019-03-12T08:45:45.368Z,6.31
2019-03-12T08:46:43.434Z,6.35
2019-03-12T08:47:43.556Z,6.32
2019-03-12T08:48:43.689Z,6.28
2019-03-12T08:49:43.813Z,6.31
2019-03-12T08:50:43.978Z,6.35
2019-03-12T08:51:44.102Z,6.34
2019-03-12T08:52:44.233Z,6.57
2019-03-12T08:53:44.370Z,6.61
2019-03-12T08:54:53.782Z,6.67
2019-03-12T08:55:44.620Z,6.65
2019-03-12T08:56:44.746Z,6.63
2019-03-12T08:57:44.872Z,6.64
2019-03-12T08:58:44.999Z,6.74
2019-03-12T08:59:45.150Z,6.71
2019-03-12T09:00:45.277Z,6.75
2019-03-12T09:01:47.563Z,6.89
2019-03-12T09:02:45.523Z,6.88
2019-03-12T09:03:45.648Z,6.83
2019-03-12T09:04:45.773Z,6.85
2019-03-12T09:05:45.913Z,6.93
2019-03-12T09:06:46.038Z,6.99
2019-03-12T09:07:46.163Z,6.99
2019-03-12T09:08:46.285Z,7.11
2019-03-12T09:09:46.421Z,7.07
2019-03-12T09:10:46.546Z,6.97
2019-03-12T09:11:46.663Z,7.11
2019-03-12T09:12:46.796Z,7.11
2019-03-12T09:13:46.919Z,7.21
2019-03-12T09:14:47.076Z,7.16
2019-03-12T09:15:47.200Z,7.16
2019-03-12T09:16:47.324Z,7.21
2019-03-12T09:17:47.491Z,7.19
2019-03-12T09:18:47.602Z,7.19
2019-03-12T09:19:47.715Z,7.34
2019-03-12T09:20:47.855Z,7.34
2019-03-12T09:21:47.965Z,7.31
2019-03-12T09:22:48.090Z,7.29
2019-03-12T09:23:48.221Z,7.34
2019-03-12T09:24:48.354Z,7.25
2019-03-12T09:25:48.483Z,7.39
2019-03-12T09:26:48.610Z,7.26
2019-03-12T09:27:48.741Z,7.44
2019-03-12T09:28:48.861Z,7.52
2019-03-12T09:29:48.975Z,7.60
2019-03-12T09:30:49.108Z,7.55
2019-03-12T09:31:49.230Z,7.61
2019-03-12T09:32:49.378Z,7.66
2019-03-12T09:33:49.495Z,7.76
2019-03-12T09:34:49.616Z,7.81
2019-03-12T09:35:49.743Z,7.87
2019-03-12T09:36:49.893Z,7.83
2019-03-12T09:37:50.019Z,7.81
2019-03-12T09:38:50.149Z,7.80
2019-03-12T09:39:50.269Z,7.78
2019-03-12T09:40:50.395Z,7.81
2019-03-12T09:41:50.509Z,7.83
2019-03-12T09:42:50.638Z,7.77
2019-03-12T09:43:50.787Z,7.74
2019-03-12T09:44:50.895Z,7.81
2019-03-12T09:45:51.017Z,7.78
2019-03-12T09:46:51.143Z,7.84
2019-03-12T09:47:51.272Z,7.76
2019-03-12T09:48:51.418Z,7.76
2019-03-12T09:49:51.534Z,7.71
2019-03-12T09:50:51.668Z,7.78
2019-03-12T09:51:51.787Z,7.84
2019-03-12T09:52:51.940Z,7.81
2019-03-12T09:53:52.058Z,8.02
2019-03-12T09:54:52.196Z,8.19
2019-03-12T09:55:52.322Z,8.14
2019-03-12T09:56:52.477Z,8.04
2019-03-12T09:57:52.598Z,7.99
2019-03-12T09:58:52.723Z,8.14
2019-03-12T09:59:52.849Z,8.13
2019-03-12T10:00:52.984Z,8.29
2019-03-12T10:01:53.134Z,7.98
2019-03-12T10:02:53.256Z,8.06
2019-03-12T10:03:53.462Z,7.96
2019-03-12T10:04:53.502Z,8.13
2019-03-12T10:05:53.627Z,8.14
2019-03-12T10:06:53.751Z,8.28
2019-03-12T10:07:53.882Z,8.12
2019-03-12T10:08:54.019Z,8.14
2019-03-12T10:09:54.130Z,8.34
2019-03-12T10:10:54.258Z,8.38
2019-03-12T10:11:54.389Z,8.37
2019-03-12T10:12:54.527Z,8.56
2019-03-12T10:13:54.687Z,8.65
2019-03-12T10:14:54.808Z,8.55
2019-03-12T10:15:54.937Z,8.44
2019-03-12T10:16:55.067Z,8.57
2019-03-12T10:17:55.192Z,8.56
2019-03-12T10:18:55.329Z,8.57
2019-03-12T10:19:55.444Z,8.44
2019-03-12T10:20:55.569Z,8.41
2019-03-12T10:21:55.697Z,8.41
2019-03-12T10:22:55.831Z,8.53
2019-03-12T10:23:55.955Z,8.55
2019-03-12T10:24:56.078Z,8.59
2019-03-12T10:25:56.225Z,8.56
2019-03-12T10:26:56.341Z,8.53
2019-03-12T10:27:56.476Z,8.56
2019-03-12T10:28:56.600Z,8.47
2019-03-12T10:29:56.731Z,8.38
2019-03-12T10:30:56.864Z,8.38
2019-03-12T10:31:56.988Z,8.35
2019-03-12T10:32:57.116Z,8.53
2019-03-12T10:33:57.244Z,8.63
2019-03-12T10:34:57.375Z,8.62
2019-03-12T10:35:57.598Z,8.67
2019-03-12T10:37:10.975Z,8.65
2019-03-12T10:37:57.768Z,8.83
2019-03-12T10:38:57.899Z,8.81
2019-03-12T10:39:58.017Z,9.06
2019-03-12T10:40:58.155Z,8.74
2019-03-12T10:41:58.294Z,8.62
2019-03-12T10:42:58.440Z,8.55
2019-03-12T10:43:58.564Z,8.42
2019-03-12T10:44:58.686Z,8.42
2019-03-12T10:45:58.824Z,8.44
2019-03-12T10:46:58.945Z,8.32
2019-03-12T10:47:59.069Z,8.35
2019-03-12T10:48:59.206Z,8.42
2019-03-12T10:49:59.341Z,8.41
2019-03-12T10:50:59.460Z,8.32
2019-03-12T10:51:59.585Z,8.35
2019-03-12T10:52:59.713Z,8.31
2019-03-12T10:53:59.844Z,8.26
2019-03-12T10:55:12.407Z,8.29
2019-03-12T10:56:00.099Z,8.17
2019-03-12T10:57:00.235Z,8.14
2019-03-12T10:58:00.371Z,8.10
2019-03-12T10:59:00.487Z,8.01
2019-03-12T11:00:00.646Z,8.21
2019-03-12T11:01:00.749Z,8.28
2019-03-12T11:02:00.872Z,8.14
2019-03-12T11:03:01.001Z,8.01
2019-03-12T11:04:01.136Z,8.16
2019-03-12T11:05:01.288Z,8.13
2019-03-12T11:06:01.425Z,8.17
2019-03-12T11:07:01.545Z,8.04
2019-03-12T11:08:01.667Z,8.21
2019-03-12T11:09:01.834Z,8.12
2019-03-12T11:10:01.946Z,8.12
2019-03-12T11:11:02.080Z,8.26
2019-03-12T11:12:02.200Z,8.21
2019-03-12T11:13:02.365Z,8.24
2019-03-12T11:14:02.524Z,8.26
2019-03-12T11:15:02.616Z,8.39
2019-03-12T11:16:02.739Z,8.47
2019-03-12T11:17:02.892Z,8.52
2019-03-12T11:18:03.011Z,8.52
2019-03-12T11:19:03.134Z,8.59
2019-03-12T11:20:03.264Z,8.44
2019-03-12T11:21:03.400Z,8.57
2019-03-12T11:22:03.547Z,8.70
2019-03-12T11:23:03.662Z,8.77
2019-03-12T11:24:03.800Z,8.80
2019-03-12T11:25:03.920Z,8.65
2019-03-12T11:26:04.052Z,8.65
2019-03-12T11:27:04.175Z,8.57
2019-03-12T11:28:04.306Z,8.59
2019-03-12T11:29:04.460Z,8.77
2019-03-12T11:30:04.575Z,8.85
2019-03-12T11:31:04.701Z,8.75
2019-03-12T11:32:04.832Z,8.75
2019-03-12T11:33:04.960Z,8.86
2019-03-12T11:34:05.092Z,8.83
2019-03-12T11:35:05.221Z,8.86
2019-03-12T11:36:05.351Z,8.90
2019-03-12T11:37:05.475Z,8.86
2019-03-12T11:38:05.625Z,8.96
2019-03-12T11:39:05.754Z,8.89
2019-03-12T11:40:05.970Z,8.99
2019-03-12T11:41:06.049Z,8.99
2019-03-12T11:42:06.469Z,9.04
2019-03-12T11:43:06.293Z,8.98
2019-03-12T11:44:06.422Z,8.99
2019-03-12T11:45:13.641Z,9.03
2019-03-12T11:46:06.757Z,9.03
2019-03-12T11:47:06.806Z,9.06
2019-03-12T11:48:06.947Z,9.09
2019-03-12T11:49:07.069Z,8.88
2019-03-12T11:50:07.199Z,8.96
2019-03-12T11:51:07.347Z,8.75
2019-03-12T11:52:07.474Z,8.81
2019-03-12T11:53:07.760Z,8.71
2019-03-12T11:54:07.787Z,8.72
2019-03-12T11:55:07.876Z,8.88
2019-03-12T11:56:08.008Z,8.72
2019-03-12T11:57:08.200Z,8.81
2019-03-12T11:58:08.313Z,8.81
2019-03-12T11:59:08.421Z,8.96
2019-03-12T12:00:08.565Z,8.96
2019-03-12T12:01:08.724Z,9.19
2019-03-12T12:02:08.814Z,9.41
2019-03-12T12:03:08.982Z,9.47
2019-03-12T12:04:09.105Z,9.44
2019-03-12T12:05:09.248Z,9.36
2019-03-12T12:06:09.765Z,9.41
2019-03-12T12:07:09.516Z,9.47
2019-03-12T12:08:09.695Z,9.34
2019-03-12T12:09:09.831Z,9.30
2019-03-12T12:10:09.915Z,9.29
2019-03-12T12:11:10.038Z,9.23
2019-03-12T12:12:10.174Z,9.08
2019-03-12T12:13:10.300Z,9.11
2019-03-12T12:14:10.470Z,9.09
2019-03-12T12:15:10.570Z,9.23
2019-03-12T12:16:10.705Z,9.11
2019-03-12T12:17:10.865Z,9.01
2019-03-12T12:18:10.965Z,8.92
2019-03-12T12:19:11.095Z,8.92
2019-03-12T12:20:11.255Z,8.93
2019-03-12T12:21:11.380Z,8.92
2019-03-12T12:22:11.503Z,8.81
2019-03-12T12:23:11.640Z,8.85
2019-03-12T12:24:11.770Z,8.70
2019-03-12T12:25:11.898Z,8.80
2019-03-12T12:26:12.020Z,8.85
2019-03-12T12:27:12.150Z,8.89
2019-03-12T12:28:12.281Z,8.93
2019-03-12T12:29:12.406Z,8.78
2019-03-12T12:30:12.538Z,8.68
2019-03-12T12:31:12.661Z,8.78
2019-03-12T12:32:12.813Z,8.63
2019-03-12T12:33:12.938Z,8.65
2019-03-12T12:34:13.073Z,8.63
2019-03-12T12:35:13.205Z,8.65
2019-03-12T12:36:13.354Z,8.75
2019-03-12T12:37:13.933Z,8.83
2019-03-12T12:38:13.608Z,8.83
2019-03-12T12:39:13.739Z,8.96
2019-03-12T12:40:13.889Z,8.96
2019-03-12T12:41:14.006Z,8.90
2019-03-12T12:42:14.144Z,8.93
2019-03-12T12:43:14.261Z,8.98
2019-03-12T12:44:14.450Z,8.90
2019-03-12T12:45:14.593Z,8.86
2019-03-12T12:46:14.725Z,8.95
2019-03-12T12:47:14.849Z,8.96
2019-03-12T12:48:14.992Z,8.92
2019-03-12T12:49:15.116Z,8.99
2019-03-12T12:50:15.249Z,9.08
2019-03-12T12:51:15.388Z,9.04
2019-03-12T12:52:15.526Z,8.96
2019-03-12T12:53:15.667Z,8.89
2019-03-12T12:54:15.830Z,8.86
2019-03-12T12:55:15.943Z,8.89
2019-03-12T12:56:16.077Z,8.78
2019-03-12T12:57:16.205Z,8.89
2019-03-12T12:58:16.338Z,8.88
2019-03-12T12:59:16.474Z,8.86
2019-03-12T13:00:16.587Z,8.95
2019-03-12T13:01:16.731Z,9.11
2019-03-12T13:02:16.956Z,9.22
2019-03-12T13:03:16.956Z,9.32
2019-03-12T13:04:17.084Z,9.51
2019-03-12T13:05:17.242Z,9.44
2019-03-12T13:06:17.365Z,9.51
2019-03-12T13:07:17.485Z,9.60
2019-03-12T13:08:17.625Z,9.34
2019-03-12T13:09:17.753Z,9.41
2019-03-12T13:10:17.881Z,9.36
2019-03-12T13:11:18.013Z,9.44
2019-03-12T13:12:18.184Z,9.27
2019-03-12T13:13:18.293Z,9.19
2019-03-12T13:14:18.416Z,9.16
2019-03-12T13:15:18.540Z,9.19
2019-03-12T13:16:25.171Z,9.16
2019-03-12T13:17:18.826Z,9.24
2019-03-12T13:18:18.950Z,9.22
2019-03-12T13:19:19.084Z,9.30
2019-03-12T13:20:19.211Z,9.33